Pagrindinis puslapis
METAR-TAF:

METAR-TAF

Oro uostai :

Hernando County Airport

Brooksville, Florida, Jungtinės Amerikos Valstijos

platuma: 28-28-25N, ilguma: 082-27-16W, Aukštis: 23 m

Dabartinis oras

Ataskaita buvo paskelbta 39 minutes, ne 07:53 UTC
Vėjas 11 kt iš Šiaurės Vakarų su gūsio iki 19 kt
Temperatūra 13°C
Drėgmė 58%
Slėgis 1018 hPa
Matomumas: 16.1 km
Giedras dangus

METAR: KBKV 270753Z AUTO 32011G19KT 10SM CLR 13/05 A3007 RMK AO2 SLP181 T01330050

Laikas: 03:32 (08:32 UTC)


TAF: trūkstamas

Orai ataskaitas ir orų prognozės (METAR, TAF).

turimą stotys yra geltonos ir raudonos taškus žemėlapyje.

Perkelti pele per norėdami pamatyti stoties vardą.

Tada spustelėkite, norėdami matyti oro stebėjimo ir prognozės.

Norėdami pakeisti žemėlapį: spustelėkite ant žalios mygtukų su juodo kryžiaus žemyn,; žalią mygtuką su brūkšneliu, jei norite nutolinti; arba žalių rodyklių gretimoms žemėlapius.


METAR-TAF: